createdAt,value
2018-02-07T00:01:04.731Z,51.13
2018-02-07T00:03:33.090Z,67.47
2018-02-07T00:06:01.458Z,58.37
2018-02-07T00:08:29.808Z,64.93
2018-02-07T00:10:58.994Z,61.13
2018-02-07T00:13:27.317Z,52.80
2018-02-07T00:15:55.640Z,52.67
2018-02-07T00:18:23.974Z,53.97
2018-02-07T00:20:52.308Z,52.33
2018-02-07T00:23:20.714Z,55.10
2018-02-07T00:25:49.031Z,53.87
2018-02-07T00:28:17.373Z,59.83
2018-02-07T00:30:45.696Z,56.13
2018-02-07T00:33:14.027Z,80.47
2018-02-07T00:35:42.411Z,60.23
2018-02-07T00:38:10.747Z,60.20
2018-02-07T00:40:39.112Z,54.93
2018-02-07T00:43:07.465Z,58.80
2018-02-07T00:45:35.810Z,52.57
2018-02-07T00:48:04.222Z,60.47
2018-02-07T00:50:32.566Z,69.50
2018-02-07T00:53:00.917Z,57.67
2018-02-07T00:55:29.233Z,68.47
2018-02-07T00:57:57.573Z,104.37
2018-02-07T01:00:25.909Z,76.97
2018-02-07T01:02:54.245Z,73.83
2018-02-07T01:05:22.563Z,69.63
2018-02-07T01:07:52.039Z,68.00
2018-02-07T01:10:20.514Z,71.60
2018-02-07T01:12:48.818Z,72.73
2018-02-07T01:15:17.163Z,63.33
2018-02-07T01:20:36.396Z,73.67
2018-02-07T01:23:04.762Z,87.77
2018-02-07T01:25:33.102Z,68.63
2018-02-07T01:28:01.464Z,69.70
2018-02-07T01:30:29.812Z,70.80
2018-02-07T01:32:58.204Z,72.17
2018-02-07T01:35:27.334Z,59.03
2018-02-07T01:37:55.667Z,54.20
2018-02-07T01:40:23.993Z,70.00
2018-02-07T01:42:52.367Z,59.43
2018-02-07T01:45:20.698Z,53.33
2018-02-07T01:47:49.079Z,61.07
2018-02-07T01:50:17.429Z,80.67
2018-02-07T01:52:45.751Z,92.63
2018-02-07T01:55:14.843Z,91.70
2018-02-07T01:57:43.192Z,85.27
2018-02-07T02:00:11.536Z,79.43
2018-02-07T02:02:39.844Z,85.87
2018-02-07T02:05:08.189Z,79.63
2018-02-07T02:07:36.591Z,75.37
2018-02-07T02:10:04.898Z,79.43
2018-02-07T02:12:33.247Z,89.80
2018-02-07T02:15:01.595Z,87.63
2018-02-07T02:17:29.955Z,92.67
2018-02-07T02:19:58.277Z,95.87
2018-02-07T02:22:26.631Z,85.83
2018-02-07T02:24:54.960Z,90.27
2018-02-07T02:27:23.311Z,93.27
2018-02-07T02:29:51.637Z,52.47
2018-02-07T02:32:19.972Z,76.17
2018-02-07T02:34:48.320Z,77.23
2018-02-07T02:37:18.567Z,58.80
2018-02-07T02:39:46.922Z,79.30
2018-02-07T02:42:15.261Z,69.13
2018-02-07T02:44:43.597Z,75.57
2018-02-07T02:47:11.945Z,95.40
2018-02-07T02:49:40.266Z,95.53
2018-02-07T02:52:08.624Z,85.57
2018-02-07T02:54:36.932Z,75.57
2018-02-07T02:57:05.272Z,77.53
2018-02-07T02:59:33.596Z,88.60
2018-02-07T03:02:01.956Z,75.73
2018-02-07T03:04:30.293Z,96.40
2018-02-07T03:06:58.879Z,78.10
2018-02-07T03:09:27.686Z,106.07
2018-02-07T03:11:56.025Z,105.50
2018-02-07T03:14:24.358Z,90.20
2018-02-07T03:16:52.696Z,107.20
2018-02-07T03:19:21.042Z,110.07
2018-02-07T03:21:49.364Z,103.57
2018-02-07T03:24:17.766Z,101.73
2018-02-07T03:26:46.095Z,118.00
2018-02-07T03:29:14.444Z,116.97
2018-02-07T03:31:42.794Z,100.47
2018-02-07T03:34:11.137Z,128.37
2018-02-07T03:36:39.442Z,139.00
2018-02-07T03:39:07.789Z,131.20
2018-02-07T03:41:36.116Z,112.93
2018-02-07T03:44:04.464Z,134.03
2018-02-07T03:46:32.803Z,135.53
2018-02-07T03:49:01.146Z,137.03
2018-02-07T03:51:29.516Z,114.93
2018-02-07T03:53:57.856Z,78.67
2018-02-07T03:56:26.179Z,117.97
2018-02-07T03:58:54.530Z,139.53
2018-02-07T04:01:22.873Z,129.70
2018-02-07T04:03:51.231Z,122.73
2018-02-07T04:06:19.637Z,135.57
2018-02-07T04:08:47.987Z,135.00
2018-02-07T04:11:17.249Z,125.73
2018-02-07T04:13:45.632Z,143.97
2018-02-07T04:16:13.997Z,112.07
2018-02-07T04:18:42.353Z,119.47
2018-02-07T04:21:10.678Z,100.93
2018-02-07T04:23:39.020Z,106.77
2018-02-07T04:26:07.348Z,122.70
2018-02-07T04:28:35.693Z,112.00
2018-02-07T04:31:04.033Z,93.27
2018-02-07T04:33:32.413Z,118.57
2018-02-07T04:36:00.768Z,103.23
2018-02-07T04:38:29.091Z,113.37
2018-02-07T04:40:57.441Z,116.90
2018-02-07T04:43:25.774Z,91.00
2018-02-07T04:45:54.114Z,127.23
2018-02-07T04:48:22.452Z,122.43
2018-02-07T04:50:50.854Z,109.63
2018-02-07T04:53:19.164Z,94.07
2018-02-07T04:55:47.533Z,124.93
2018-02-07T04:58:15.865Z,122.63
2018-02-07T05:00:44.202Z,142.73
2018-02-07T05:03:12.535Z,144.30
2018-02-07T05:05:40.911Z,160.20
2018-02-07T05:08:09.255Z,195.07
2018-02-07T05:10:37.579Z,169.33
2018-02-07T05:13:05.940Z,158.53
2018-02-07T05:15:34.284Z,149.57
2018-02-07T05:18:02.617Z,172.43
2018-02-07T05:20:30.974Z,148.87
2018-02-07T05:22:59.300Z,156.07
2018-02-07T05:25:27.639Z,142.37
2018-02-07T05:27:56.020Z,209.53
2018-02-07T05:30:24.361Z,169.80
2018-02-07T05:32:52.700Z,173.77
2018-02-07T05:35:21.047Z,166.93
2018-02-07T05:37:49.696Z,172.07
2018-02-07T05:40:18.056Z,157.77
2018-02-07T05:42:46.440Z,151.67
2018-02-07T05:45:14.793Z,161.93
2018-02-07T05:47:43.133Z,172.00
2018-02-07T05:50:11.466Z,169.47
2018-02-07T05:52:39.810Z,175.77
2018-02-07T05:55:08.168Z,160.83
2018-02-07T05:57:36.528Z,161.77
2018-02-07T06:00:04.903Z,159.83
2018-02-07T06:02:33.293Z,166.40
2018-02-07T06:05:01.678Z,139.07
2018-02-07T06:07:29.983Z,151.20
2018-02-07T06:09:58.331Z,149.23
2018-02-07T06:12:26.688Z,148.40
2018-02-07T06:14:55.020Z,171.57
2018-02-07T06:17:23.361Z,165.90
2018-02-07T06:19:51.721Z,158.63
2018-02-07T06:22:20.067Z,145.13
2018-02-07T06:24:48.421Z,153.47
2018-02-07T06:27:16.774Z,150.83
2018-02-07T06:29:45.104Z,159.37
2018-02-07T06:32:13.456Z,172.37
2018-02-07T06:34:41.779Z,166.17
2018-02-07T06:37:10.851Z,166.97
2018-02-07T06:39:39.205Z,186.47
2018-02-07T06:42:07.655Z,194.63
2018-02-07T06:44:36.012Z,186.77
2018-02-07T06:47:04.367Z,142.47
2018-02-07T06:49:33.667Z,152.00
2018-02-07T06:52:02.100Z,143.10
2018-02-07T06:54:30.522Z,157.47
2018-02-07T06:56:59.760Z,154.13
2018-02-07T06:59:28.177Z,169.20
2018-02-07T07:01:56.581Z,170.83
2018-02-07T07:04:25.001Z,154.40
2018-02-07T07:06:53.387Z,145.43
2018-02-07T07:09:21.720Z,144.93
2018-02-07T07:11:50.078Z,132.40
2018-02-07T07:14:18.548Z,150.27
2018-02-07T07:16:46.904Z,147.57
2018-02-07T07:19:15.265Z,142.37
2018-02-07T07:21:43.675Z,141.27
2018-02-07T07:24:12.047Z,132.50
2018-02-07T07:26:40.400Z,128.50
2018-02-07T07:29:08.804Z,157.33
2018-02-07T07:31:37.901Z,164.07
2018-02-07T07:34:06.343Z,149.60
2018-02-07T07:36:34.747Z,142.77
2018-02-07T07:39:03.150Z,145.07
2018-02-07T07:41:31.534Z,150.07
2018-02-07T07:44:02.032Z,138.67
2018-02-07T07:46:30.429Z,164.70
2018-02-07T07:48:58.793Z,160.50
2018-02-07T07:51:27.135Z,176.77
2018-02-07T07:53:55.470Z,136.50
2018-02-07T07:56:23.851Z,187.83
2018-02-07T07:58:52.196Z,153.37
2018-02-07T08:01:20.568Z,147.23
2018-02-07T08:03:49.653Z,157.67
2018-02-07T08:06:18.498Z,159.00
2018-02-07T08:08:46.807Z,163.67
2018-02-07T08:11:15.272Z,171.23
2018-02-07T08:13:43.688Z,154.30
2018-02-07T08:16:12.171Z,168.55
2018-02-07T08:18:40.578Z,158.63
2018-02-07T08:21:08.963Z,140.80
2018-02-07T08:23:37.294Z,167.73
2018-02-07T08:26:05.692Z,148.13
2018-02-07T08:28:34.090Z,147.00
2018-02-07T08:31:03.590Z,148.67
2018-02-07T08:33:33.680Z,155.60
2018-02-07T08:36:02.051Z,142.30
2018-02-07T08:38:30.635Z,157.97
2018-02-07T08:40:59.024Z,156.33
2018-02-07T08:43:27.924Z,155.27
2018-02-07T08:45:56.345Z,162.00
2018-02-07T08:48:24.750Z,150.13
2018-02-07T08:50:53.106Z,160.70
2018-02-07T08:53:21.433Z,167.53
2018-02-07T08:55:49.801Z,167.37
2018-02-07T08:58:18.347Z,151.23
2018-02-07T09:00:46.716Z,160.47
2018-02-07T09:03:15.153Z,152.70
2018-02-07T09:05:44.564Z,152.13
2018-02-07T09:08:12.904Z,191.63
2018-02-07T09:10:41.372Z,167.87
2018-02-07T09:13:09.698Z,168.60
2018-02-07T09:15:38.106Z,162.00
2018-02-07T09:18:06.442Z,164.03
2018-02-07T09:20:35.891Z,187.67
2018-02-07T09:23:04.316Z,167.10
2018-02-07T09:25:32.666Z,170.20
2018-02-07T09:28:01.253Z,162.03
2018-02-07T09:30:29.683Z,161.50
2018-02-07T09:32:58.132Z,184.60
2018-02-07T09:35:26.525Z,150.93
2018-02-07T09:37:54.930Z,152.70
2018-02-07T09:40:23.924Z,172.80
2018-02-07T09:42:52.319Z,151.67
2018-02-07T09:45:20.797Z,143.03
2018-02-07T09:47:49.263Z,177.03
2018-02-07T09:52:50.127Z,178.23
2018-02-07T09:55:18.495Z,157.53
2018-02-07T09:57:46.837Z,204.57
2018-02-07T10:00:15.179Z,180.10
2018-02-07T10:02:43.519Z,159.77
2018-02-07T10:05:11.960Z,168.00
2018-02-07T10:07:40.369Z,146.57
2018-02-07T10:10:08.823Z,175.30
2018-02-07T10:12:37.247Z,180.03
2018-02-07T10:15:05.599Z,177.87
2018-02-07T10:17:33.990Z,175.30
2018-02-07T10:20:02.346Z,199.67
2018-02-07T10:22:30.880Z,179.50
2018-02-07T10:24:59.306Z,179.53
2018-02-07T10:27:27.705Z,155.63
2018-02-07T10:29:56.310Z,162.80
2018-02-07T10:32:24.760Z,170.50
2018-02-07T10:34:53.175Z,156.83
2018-02-07T10:37:21.804Z,173.73
2018-02-07T10:39:51.819Z,151.67
2018-02-07T10:42:20.212Z,164.13
2018-02-07T10:44:48.613Z,144.33
2018-02-07T10:47:16.987Z,165.13
2018-02-07T10:49:45.511Z,156.93
2018-02-07T10:52:13.842Z,173.13
2018-02-07T10:54:42.274Z,159.00
2018-02-07T10:57:10.642Z,162.20
2018-02-07T10:59:39.028Z,154.63
2018-02-07T11:04:40.506Z,170.17
2018-02-07T11:07:08.897Z,154.20
2018-02-07T11:09:40.885Z,149.00
2018-02-07T11:12:09.468Z,165.93
2018-02-07T11:14:38.367Z,171.00
2018-02-07T11:17:06.711Z,156.50
2018-02-07T11:19:35.132Z,180.23
2018-02-07T11:22:07.250Z,160.83
2018-02-07T11:27:08.250Z,149.57
2018-02-07T11:29:36.680Z,177.13
2018-02-07T11:32:05.096Z,140.10
2018-02-07T11:34:33.506Z,157.70
2018-02-07T11:37:02.543Z,174.00
2018-02-07T11:39:31.002Z,170.20
2018-02-07T11:41:59.427Z,170.23
2018-02-07T11:44:27.890Z,163.57
2018-02-07T11:46:56.321Z,178.47
2018-02-07T11:49:24.755Z,164.60
2018-02-07T11:51:53.590Z,159.03
2018-02-07T11:54:21.924Z,165.83
2018-02-07T11:56:50.694Z,150.47
2018-02-07T11:59:19.310Z,161.03
2018-02-07T12:01:48.041Z,161.67
2018-02-07T12:06:48.824Z,158.40
2018-02-07T12:09:17.444Z,142.60
2018-02-07T12:11:46.820Z,162.90
2018-02-07T12:14:15.240Z,180.10
2018-02-07T12:16:43.606Z,174.80
2018-02-07T12:19:12.317Z,166.90
2018-02-07T12:21:40.707Z,165.17
2018-02-07T12:24:09.097Z,174.50
2018-02-07T12:26:37.504Z,173.70
2018-02-07T12:29:05.930Z,163.57
2018-02-07T12:31:34.282Z,146.50
2018-02-07T12:34:02.653Z,141.93
2018-02-07T12:36:31.064Z,192.83
2018-02-07T12:38:59.806Z,141.37
2018-02-07T12:41:28.386Z,145.07
2018-02-07T12:43:57.145Z,166.70
2018-02-07T12:46:25.584Z,151.57
2018-02-07T12:48:54.100Z,186.57
2018-02-07T12:51:22.514Z,172.87
2018-02-07T12:53:51.061Z,200.53
2018-02-07T12:56:20.490Z,187.10
2018-02-07T12:58:48.901Z,172.40
2018-02-07T13:01:18.077Z,161.03
2018-02-07T13:03:48.880Z,192.10
2018-02-07T13:06:17.347Z,163.20
2018-02-07T13:08:45.771Z,171.37
2018-02-07T13:11:14.199Z,157.00
2018-02-07T13:13:43.622Z,176.13
2018-02-07T13:18:44.857Z,152.47
2018-02-07T13:21:13.475Z,160.30
2018-02-07T13:23:41.796Z,169.30
2018-02-07T13:26:10.315Z,164.20
2018-02-07T13:28:38.652Z,151.43
2018-02-07T13:31:07.059Z,127.53
2018-02-07T13:33:35.653Z,176.97
2018-02-07T13:36:04.139Z,148.70
2018-02-07T13:38:32.769Z,151.57
2018-02-07T13:41:01.458Z,147.80
2018-02-07T13:43:29.909Z,154.50
2018-02-07T13:45:58.278Z,146.83
2018-02-07T13:48:26.703Z,152.60
2018-02-07T13:50:55.145Z,152.80
2018-02-07T13:53:23.488Z,136.93
2018-02-07T13:55:53.340Z,132.07
2018-02-07T13:58:22.002Z,131.43
2018-02-07T14:00:53.209Z,154.07
2018-02-07T14:03:21.828Z,129.90
2018-02-07T14:05:50.653Z,121.47
2018-02-07T14:08:19.245Z,133.50
2018-02-07T14:10:47.592Z,156.83
2018-02-07T14:13:15.963Z,137.83
2018-02-07T14:15:45.218Z,149.50
2018-02-07T14:18:13.577Z,131.63
2018-02-07T14:20:41.949Z,125.70
2018-02-07T14:23:10.567Z,119.50
2018-02-07T14:25:38.928Z,120.70
2018-02-07T14:28:07.334Z,116.07
2018-02-07T14:33:08.576Z,145.67
2018-02-07T14:35:36.917Z,120.43
2018-02-07T14:38:05.329Z,102.93
2018-02-07T14:40:33.755Z,117.77
2018-02-07T14:43:02.306Z,134.17
2018-02-07T14:45:30.766Z,123.60
2018-02-07T14:47:59.208Z,124.63
2018-02-07T14:50:28.064Z,123.47
2018-02-07T14:52:56.424Z,123.13
2018-02-07T14:55:24.888Z,140.13
2018-02-07T14:57:54.961Z,133.93
2018-02-07T15:02:56.099Z,136.40
2018-02-07T15:05:24.522Z,117.53
2018-02-07T15:07:53.160Z,131.90
2018-02-07T15:10:21.564Z,159.07
2018-02-07T15:12:50.840Z,126.10
2018-02-07T15:15:19.225Z,128.90
2018-02-07T15:17:47.619Z,117.73
2018-02-07T15:20:16.186Z,138.47
2018-02-07T15:22:44.681Z,120.30
2018-02-07T15:25:13.425Z,130.30
2018-02-07T15:27:41.822Z,144.50
2018-02-07T15:30:10.284Z,147.53
2018-02-07T15:32:38.776Z,140.47
2018-02-07T15:35:07.149Z,135.87
2018-02-07T15:37:35.779Z,158.20
2018-02-07T15:40:04.517Z,142.47
2018-02-07T15:42:33.104Z,124.10
2018-02-07T15:45:01.472Z,138.13
2018-02-07T15:47:29.897Z,136.63
2018-02-07T15:49:59.460Z,147.73
2018-02-07T15:52:27.853Z,144.40
2018-02-07T15:54:59.613Z,138.07
2018-02-07T15:57:27.954Z,138.97
2018-02-07T15:59:56.341Z,156.70
2018-02-07T16:02:24.747Z,143.23
2018-02-07T16:04:53.702Z,143.33
2018-02-07T16:07:22.057Z,144.73
2018-02-07T16:09:50.527Z,131.57
2018-02-07T16:12:18.893Z,140.87
2018-02-07T16:14:47.424Z,145.43
2018-02-07T16:17:15.782Z,152.10
2018-02-07T16:19:44.137Z,146.07
2018-02-07T16:22:12.662Z,149.40
2018-02-07T16:24:41.010Z,145.50
2018-02-07T16:27:09.419Z,143.83
2018-02-07T16:29:37.850Z,151.57
2018-02-07T16:32:06.243Z,147.23
2018-02-07T16:39:39.778Z,109.00
2018-02-07T16:42:08.273Z,129.73
2018-02-07T16:44:36.878Z,123.77
2018-02-07T16:47:05.300Z,122.40
2018-02-07T16:49:33.724Z,146.80
2018-02-07T16:52:02.489Z,144.00
2018-02-07T16:54:32.202Z,131.10
2018-02-07T16:57:02.905Z,154.03
2018-02-07T16:59:31.283Z,150.70
2018-02-07T17:02:01.180Z,134.87
2018-02-07T17:04:29.827Z,118.67
2018-02-07T17:06:58.254Z,148.87
2018-02-07T17:09:26.601Z,145.57
2018-02-07T17:11:54.948Z,130.13
2018-02-07T17:14:23.583Z,144.00
2018-02-07T17:16:51.999Z,141.23
2018-02-07T17:19:20.503Z,149.27
2018-02-07T17:21:48.922Z,140.20
2018-02-07T17:24:17.300Z,148.03
2018-02-07T17:26:46.141Z,136.67
2018-02-07T17:29:14.509Z,155.60
2018-02-07T17:31:42.979Z,149.97
2018-02-07T17:34:11.502Z,135.63
2018-02-07T17:36:39.927Z,157.70
2018-02-07T17:39:08.279Z,145.00
2018-02-07T17:41:36.661Z,146.33
2018-02-07T17:44:05.202Z,162.70
2018-02-07T17:46:33.588Z,132.33
2018-02-07T17:49:02.218Z,144.33
2018-02-07T17:51:30.574Z,151.97
2018-02-07T17:53:58.988Z,127.43
2018-02-07T17:56:30.773Z,146.50
2018-02-07T17:58:59.410Z,148.27
2018-02-07T18:01:30.545Z,139.80
2018-02-07T18:03:58.889Z,157.33
2018-02-07T18:06:27.225Z,145.33
2018-02-07T18:08:55.611Z,141.27
2018-02-07T18:11:24.139Z,121.43
2018-02-07T18:13:54.171Z,160.77
2018-02-07T18:16:22.529Z,145.17
2018-02-07T18:18:50.917Z,140.40
2018-02-07T18:21:19.303Z,146.30
2018-02-07T18:23:47.749Z,148.17
2018-02-07T18:26:16.214Z,166.23
2018-02-07T18:28:44.562Z,146.23
2018-02-07T18:31:12.925Z,167.00
2018-02-07T18:33:41.350Z,135.27
2018-02-07T18:36:09.749Z,168.87
2018-02-07T18:38:39.021Z,173.80
2018-02-07T18:41:07.362Z,142.47
2018-02-07T18:43:35.836Z,142.47
2018-02-07T18:46:04.218Z,146.47
2018-02-07T18:48:32.636Z,159.27
2018-02-07T18:51:01.109Z,177.63
2018-02-07T18:53:29.430Z,145.00
2018-02-07T18:55:57.807Z,143.70
2018-02-07T18:58:26.197Z,153.57
2018-02-07T19:00:54.716Z,155.93
2018-02-07T19:03:23.045Z,157.27
2018-02-07T19:05:51.494Z,156.00
2018-02-07T19:08:19.851Z,162.50
2018-02-07T19:10:48.374Z,158.57
2018-02-07T19:13:17.052Z,151.97
2018-02-07T19:15:45.425Z,161.90
2018-02-07T19:18:13.837Z,157.13
2018-02-07T19:20:42.206Z,171.23
2018-02-07T19:23:10.552Z,168.83
2018-02-07T19:25:39.057Z,169.60
2018-02-07T19:28:07.616Z,180.03
2018-02-07T19:30:35.967Z,177.37
2018-02-07T19:33:04.323Z,167.30
2018-02-07T19:35:32.717Z,199.13
2018-02-07T19:38:01.204Z,155.97
2018-02-07T19:40:29.537Z,176.83
2018-02-07T19:42:57.886Z,160.77
2018-02-07T19:45:26.360Z,156.53
2018-02-07T19:47:54.731Z,177.37
2018-02-07T19:50:23.069Z,137.30
2018-02-07T19:52:52.004Z,162.47
2018-02-07T19:55:20.457Z,151.63
2018-02-07T19:57:48.883Z,145.77
2018-02-07T20:00:18.237Z,157.93
2018-02-07T20:02:46.693Z,146.27
2018-02-07T20:05:15.067Z,164.97
2018-02-07T20:07:43.420Z,150.80
2018-02-07T20:10:11.782Z,166.27
2018-02-07T20:12:41.573Z,162.00
2018-02-07T20:15:09.993Z,172.87
2018-02-07T20:17:38.733Z,168.43
2018-02-07T20:20:07.146Z,151.20
2018-02-07T20:22:35.745Z,160.27
2018-02-07T20:25:04.159Z,147.07
2018-02-07T20:27:32.624Z,154.70
2018-02-07T20:30:01.034Z,150.63
2018-02-07T20:32:29.389Z,180.60
2018-02-07T20:34:57.744Z,159.43
2018-02-07T20:37:26.075Z,170.27
2018-02-07T20:39:54.452Z,150.60
2018-02-07T20:42:22.799Z,186.37
2018-02-07T20:45:02.019Z,181.07
2018-02-07T20:47:30.869Z,186.50
2018-02-07T20:49:59.221Z,174.90
2018-02-07T20:52:29.141Z,191.83
2018-02-07T20:55:01.988Z,182.90
2018-02-07T20:57:31.280Z,163.13
2018-02-07T20:59:59.983Z,167.90
2018-02-07T21:02:28.320Z,158.70
2018-02-07T21:04:57.279Z,151.73
2018-02-07T21:07:25.664Z,172.33
2018-02-07T21:09:54.008Z,180.93
2018-02-07T21:12:22.389Z,148.93
2018-02-07T21:14:50.949Z,175.50
2018-02-07T21:17:19.359Z,195.97
2018-02-07T21:19:47.724Z,175.03
2018-02-07T21:22:16.248Z,152.33
2018-02-07T21:24:44.561Z,159.57
2018-02-07T21:27:12.924Z,171.70
2018-02-07T21:29:41.280Z,152.30
2018-02-07T21:32:09.686Z,156.73
2018-02-07T21:34:38.069Z,158.40
2018-02-07T21:37:06.471Z,146.97
2018-02-07T21:39:34.865Z,142.33
2018-02-07T21:42:03.276Z,148.53
2018-02-07T21:44:32.473Z,154.33
2018-02-07T21:47:01.187Z,152.57
2018-02-07T21:49:29.549Z,159.90
2018-02-07T21:51:57.931Z,166.17
2018-02-07T21:54:26.293Z,169.90
2018-02-07T21:56:54.678Z,144.43
2018-02-07T21:59:23.025Z,145.00
2018-02-07T22:01:51.363Z,132.37
2018-02-07T22:04:19.703Z,128.17
2018-02-07T22:06:48.082Z,151.07
2018-02-07T22:09:16.446Z,144.73
2018-02-07T22:11:44.793Z,153.80
2018-02-07T22:14:13.146Z,133.63
2018-02-07T22:16:41.470Z,151.17
2018-02-07T22:19:09.836Z,138.07
2018-02-07T22:21:38.182Z,148.50
2018-02-07T22:24:06.537Z,143.43
2018-02-07T22:26:34.877Z,119.90
2018-02-07T22:29:03.291Z,154.63
2018-02-07T22:31:31.700Z,128.17
2018-02-07T22:34:00.063Z,111.77
2018-02-07T22:36:28.443Z,139.47
2018-02-07T22:38:56.806Z,145.17
2018-02-07T22:41:25.158Z,131.90
2018-02-07T22:43:53.489Z,123.73
2018-02-07T22:46:21.833Z,143.70
2018-02-07T22:48:50.197Z,123.37
2018-02-07T22:51:18.590Z,140.87
2018-02-07T22:53:47.066Z,130.87
2018-02-07T22:56:15.433Z,129.87
2018-02-07T22:58:43.812Z,122.30
2018-02-07T23:01:12.177Z,129.13
2018-02-07T23:03:40.523Z,136.93
2018-02-07T23:06:08.883Z,125.70
2018-02-07T23:08:37.223Z,129.77
2018-02-07T23:11:05.571Z,123.27
2018-02-07T23:13:33.915Z,120.33
2018-02-07T23:16:02.305Z,115.93
2018-02-07T23:18:30.679Z,119.90
2018-02-07T23:20:59.092Z,109.40
2018-02-07T23:23:27.435Z,113.43
2018-02-07T23:25:55.777Z,115.20
2018-02-07T23:28:24.098Z,122.53
2018-02-07T23:30:52.463Z,115.60
2018-02-07T23:33:20.792Z,115.37
2018-02-07T23:35:49.170Z,134.30
2018-02-07T23:38:17.491Z,115.37
2018-02-07T23:40:45.834Z,112.37
2018-02-07T23:43:14.185Z,106.73
2018-02-07T23:45:42.533Z,109.10
2018-02-07T23:48:10.883Z,117.00
2018-02-07T23:50:39.228Z,95.30
2018-02-07T23:53:07.573Z,101.77
2018-02-07T23:55:35.936Z,119.10
2018-02-07T23:58:04.280Z,121.33
